sensor_id;sensor_type;location;lat;lon;timestamp;pressure;altitude;pressure_sealevel;temperature;humidity
69980;BME280;57318;56.232;43.944;2024-01-15T00:00:42;97899.53;;;-13.07;74.33
69980;BME280;57318;56.232;43.944;2024-01-15T00:03:07;97903.84;;;-13.09;74.52
69980;BME280;57318;56.232;43.944;2024-01-15T00:05:33;97896.16;;;-13.09;74.95
69980;BME280;57318;56.232;43.944;2024-01-15T00:07:59;97886.75;;;-13.07;74.83
69980;BME280;57318;56.232;43.944;2024-01-15T00:10:24;97883.31;;;-13.01;75.33
69980;BME280;57318;56.232;43.944;2024-01-15T00:12:50;97882.41;;;-12.98;75.38
69980;BME280;57318;56.232;43.944;2024-01-15T00:15:16;97885.84;;;-12.99;75.33
69980;BME280;57318;56.232;43.944;2024-01-15T00:17:41;97874.72;;;-12.97;75.32
69980;BME280;57318;56.232;43.944;2024-01-15T00:20:07;97879.81;;;-12.97;75.40
69980;BME280;57318;56.232;43.944;2024-01-15T00:22:33;97880.75;;;-13.02;74.90
69980;BME280;57318;56.232;43.944;2024-01-15T00:25:01;97890.06;;;-12.98;75.55
69980;BME280;57318;56.232;43.944;2024-01-15T00:27:27;97882.41;;;-12.98;75.47
69980;BME280;57318;56.232;43.944;2024-01-15T00:29:53;97889.22;;;-12.97;75.35
69980;BME280;57318;56.232;43.944;2024-01-15T00:32:19;97894.38;;;-13.00;75.22
69980;BME280;57318;56.232;43.944;2024-01-15T00:34:46;97880.69;;;-12.96;75.15
69980;BME280;57318;56.232;43.944;2024-01-15T00:37:12;97879.84;;;-13.00;74.96
69980;BME280;57318;56.232;43.944;2024-01-15T00:39:37;97881.56;;;-12.99;74.80
69980;BME280;57318;56.232;43.944;2024-01-15T00:42:03;97861.94;;;-12.98;74.94
69980;BME280;57318;56.232;43.944;2024-01-15T00:44:29;97870.50;;;-12.99;74.92
69980;BME280;57318;56.232;43.944;2024-01-15T00:46:55;97873.06;;;-12.99;74.67
69980;BME280;57318;56.232;43.944;2024-01-15T00:49:21;97874.75;;;-13.01;74.60
69980;BME280;57318;56.232;43.944;2024-01-15T00:51:47;97868.81;;;-13.03;74.57
69980;BME280;57318;56.232;43.944;2024-01-15T00:54:12;97876.53;;;-13.05;74.56
69980;BME280;57318;56.232;43.944;2024-01-15T00:56:38;97873.09;;;-13.02;74.63
69980;BME280;57318;56.232;43.944;2024-01-15T00:59:04;97869.72;;;-13.04;74.81
69980;BME280;57318;56.232;43.944;2024-01-15T01:01:31;97858.59;;;-13.03;74.61
69980;BME280;57318;56.232;43.944;2024-01-15T01:03:56;97863.72;;;-13.05;74.41
69980;BME280;57318;56.232;43.944;2024-01-15T01:06:22;97870.56;;;-13.05;74.40
69980;BME280;57318;56.232;43.944;2024-01-15T01:08:48;97851.00;;;-13.10;74.04
69980;BME280;57318;56.232;43.944;2024-01-15T01:11:14;97865.50;;;-13.09;74.42
69980;BME280;57318;56.232;43.944;2024-01-15T01:13:40;97852.72;;;-13.10;74.38
69980;BME280;57318;56.232;43.944;2024-01-15T01:16:06;97860.38;;;-13.09;74.44
69980;BME280;57318;56.232;43.944;2024-01-15T01:18:31;97843.38;;;-13.13;74.44
69980;BME280;57318;56.232;43.944;2024-01-15T01:20:57;97857.00;;;-13.12;74.29
69980;BME280;57318;56.232;43.944;2024-01-15T01:23:23;97854.47;;;-13.14;74.37
69980;BME280;57318;56.232;43.944;2024-01-15T01:25:49;97833.22;;;-13.19;74.02
69980;BME280;57318;56.232;43.944;2024-01-15T01:28:14;97842.59;;;-13.21;74.49
69980;BME280;57318;56.232;43.944;2024-01-15T01:30:40;97838.31;;;-13.19;74.28
69980;BME280;57318;56.232;43.944;2024-01-15T01:33:06;97819.56;;;-13.18;74.07
69980;BME280;57318;56.232;43.944;2024-01-15T01:35:31;97810.19;;;-13.19;74.31
69980;BME280;57318;56.232;43.944;2024-01-15T01:37:57;97817.91;;;-13.22;74.39
69980;BME280;57318;56.232;43.944;2024-01-15T01:40:23;97808.56;;;-13.23;74.47
69980;BME280;57318;56.232;43.944;2024-01-15T01:42:48;97817.06;;;-13.21;74.52
69980;BME280;57318;56.232;43.944;2024-01-15T01:45:14;97819.63;;;-13.24;74.65
69980;BME280;57318;56.232;43.944;2024-01-15T01:47:40;97806.81;;;-13.21;74.58
69980;BME280;57318;56.232;43.944;2024-01-15T01:50:06;97830.69;;;-13.22;74.30
69980;BME280;57318;56.232;43.944;2024-01-15T01:52:32;97794.09;;;-13.24;74.40
69980;BME280;57318;56.232;43.944;2024-01-15T01:54:58;97789.00;;;-13.26;74.25
69980;BME280;57318;56.232;43.944;2024-01-15T01:57:25;97803.50;;;-13.28;74.26
69980;BME280;57318;56.232;43.944;2024-01-15T01:59:51;97804.34;;;-13.29;74.05
69980;BME280;57318;56.232;43.944;2024-01-15T02:02:18;97798.44;;;-13.32;74.14
69980;BME280;57318;56.232;43.944;2024-01-15T02:04:44;97797.66;;;-13.34;74.16
69980;BME280;57318;56.232;43.944;2024-01-15T02:07:09;97797.66;;;-13.34;74.11
69980;BME280;57318;56.232;43.944;2024-01-15T02:09:36;97786.53;;;-13.33;73.64
69980;BME280;57318;56.232;43.944;2024-01-15T02:12:01;97808.72;;;-13.34;73.80
69980;BME280;57318;56.232;43.944;2024-01-15T02:14:27;97808.66;;;-13.31;73.86
69980;BME280;57318;56.232;43.944;2024-01-15T02:16:53;97803.56;;;-13.32;73.33
69980;BME280;57318;56.232;43.944;2024-01-15T02:19:19;97796.69;;;-13.30;73.69
69980;BME280;57318;56.232;43.944;2024-01-15T02:21:45;97802.69;;;-13.31;73.46
69980;BME280;57318;56.232;43.944;2024-01-15T02:24:11;97798.44;;;-13.32;73.50
69980;BME280;57318;56.232;43.944;2024-01-15T02:26:37;97806.94;;;-13.30;73.53
69980;BME280;57318;56.232;43.944;2024-01-15T02:29:05;97798.44;;;-13.31;73.40
69980;BME280;57318;56.232;43.944;2024-01-15T02:31:32;97789.84;;;-13.28;73.80
69980;BME280;57318;56.232;43.944;2024-01-15T02:33:57;97795.81;;;-13.26;73.61
69980;BME280;57318;56.232;43.944;2024-01-15T02:36:23;97796.66;;;-13.27;73.61
69980;BME280;57318;56.232;43.944;2024-01-15T02:38:49;97792.41;;;-13.27;73.70
69980;BME280;57318;56.232;43.944;2024-01-15T02:41:14;97789.00;;;-13.26;73.64
69980;BME280;57318;56.232;43.944;2024-01-15T02:43:40;97784.72;;;-13.25;73.68
69980;BME280;57318;56.232;43.944;2024-01-15T02:46:07;97791.53;;;-13.24;73.93
69980;BME280;57318;56.232;43.944;2024-01-15T02:48:32;97782.16;;;-13.25;73.65
69980;BME280;57318;56.232;43.944;2024-01-15T02:51:01;97782.16;;;-13.25;73.79
69980;BME280;57318;56.232;43.944;2024-01-15T02:53:26;97778.78;;;-13.27;73.85
69980;BME280;57318;56.232;43.944;2024-01-15T02:55:52;97782.19;;;-13.28;74.08
69980;BME280;57318;56.232;43.944;2024-01-15T02:58:18;97777.16;;;-13.31;74.35
69980;BME280;57318;56.232;43.944;2024-01-15T03:00:43;97789.00;;;-13.27;74.33
69980;BME280;57318;56.232;43.944;2024-01-15T03:03:09;97760.84;;;-13.22;74.28
69980;BME280;57318;56.232;43.944;2024-01-15T03:05:35;97765.94;;;-13.22;74.41
69980;BME280;57318;56.232;43.944;2024-01-15T03:08:00;97777.00;;;-13.22;74.53
69980;BME280;57318;56.232;43.944;2024-01-15T03:10:26;97777.06;;;-13.28;74.66
69980;BME280;57318;56.232;43.944;2024-01-15T03:12:52;97751.50;;;-13.25;75.01
69980;BME280;57318;56.232;43.944;2024-01-15T03:15:17;97763.41;;;-13.22;75.06
69980;BME280;57318;56.232;43.944;2024-01-15T03:17:44;97745.50;;;-13.21;75.03
69980;BME280;57318;56.232;43.944;2024-01-15T03:20:10;97761.72;;;-13.25;74.82
69980;BME280;57318;56.232;43.944;2024-01-15T03:22:36;97771.88;;;-13.20;75.23
69980;BME280;57318;56.232;43.944;2024-01-15T03:25:03;97761.63;;;-13.19;75.50
69980;BME280;57318;56.232;43.944;2024-01-15T03:27:30;97758.22;;;-13.18;75.74
69980;BME280;57318;56.232;43.944;2024-01-15T03:29:56;97756.53;;;-13.20;75.82
69980;BME280;57318;56.232;43.944;2024-01-15T03:32:21;97760.00;;;-13.23;76.13
69980;BME280;57318;56.232;43.944;2024-01-15T03:34:47;97755.72;;;-13.22;76.38
69980;BME280;57318;56.232;43.944;2024-01-15T03:37:13;97762.53;;;-13.21;76.38
69980;BME280;57318;56.232;43.944;2024-01-15T03:39:39;97766.78;;;-13.22;76.28
69980;BME280;57318;56.232;43.944;2024-01-15T03:42:06;97755.78;;;-13.27;76.56
69980;BME280;57318;56.232;43.944;2024-01-15T03:44:32;97759.13;;;-13.22;76.99
69980;BME280;57318;56.232;43.944;2024-01-15T03:46:58;97774.44;;;-13.20;76.89
69980;BME280;57318;56.232;43.944;2024-01-15T03:49:24;97759.94;;;-13.17;77.19
69980;BME280;57318;56.232;43.944;2024-01-15T03:51:50;97758.22;;;-13.16;77.11
69980;BME280;57318;56.232;43.944;2024-01-15T03:54:15;97764.19;;;-13.17;77.65
69980;BME280;57318;56.232;43.944;2024-01-15T03:56:41;97756.50;;;-13.16;77.67
69980;BME280;57318;56.232;43.944;2024-01-15T03:59:07;97737.78;;;-13.18;77.50
69980;BME280;57318;56.232;43.944;2024-01-15T04:01:32;97748.00;;;-13.18;77.60
69980;BME280;57318;56.232;43.944;2024-01-15T04:03:58;97750.53;;;-13.15;77.69
69980;BME280;57318;56.232;43.944;2024-01-15T04:06:24;97746.25;;;-13.16;77.65
69980;BME280;57318;56.232;43.944;2024-01-15T04:08:49;97753.88;;;-13.11;77.93
69980;BME280;57318;56.232;43.944;2024-01-15T04:11:15;97747.09;;;-13.12;78.14
69980;BME280;57318;56.232;43.944;2024-01-15T04:13:41;97749.63;;;-13.11;78.14
69980;BME280;57318;56.232;43.944;2024-01-15T04:16:06;97751.31;;;-13.10;77.90
69980;BME280;57318;56.232;43.944;2024-01-15T04:18:32;97745.34;;;-13.09;77.93
69980;BME280;57318;56.232;43.944;2024-01-15T04:20:58;97745.28;;;-13.04;78.14
69980;BME280;57318;56.232;43.944;2024-01-15T04:23:24;97770.84;;;-13.04;78.38
69980;BME280;57318;56.232;43.944;2024-01-15T04:25:49;97742.69;;;-13.02;78.01
69980;BME280;57318;56.232;43.944;2024-01-15T04:28:15;97769.13;;;-13.03;78.01
69980;BME280;57318;56.232;43.944;2024-01-15T04:30:40;97749.47;;;-13.01;78.12
69980;BME280;57318;56.232;43.944;2024-01-15T04:33:06;97764.91;;;-13.04;78.14
69980;BME280;57318;56.232;43.944;2024-01-15T04:35:33;97734.16;;;-13.01;77.98
69980;BME280;57318;56.232;43.944;2024-01-15T04:37:58;97742.72;;;-13.04;78.01
69980;BME280;57318;56.232;43.944;2024-01-15T04:40:24;97750.34;;;-12.99;77.97
69980;BME280;57318;56.232;43.944;2024-01-15T04:42:53;97759.69;;;-13.00;78.13
69980;BME280;57318;56.232;43.944;2024-01-15T04:45:19;97757.97;;;-12.98;78.04
69980;BME280;57318;56.232;43.944;2024-01-15T04:47:48;97751.09;;;-12.94;77.81
69980;BME280;57318;56.232;43.944;2024-01-15T04:50:14;97751.09;;;-12.93;77.75
69980;BME280;57318;56.232;43.944;2024-01-15T04:52:40;97756.22;;;-12.94;77.37
69980;BME280;57318;56.232;43.944;2024-01-15T04:55:05;97763.06;;;-12.96;77.41
69980;BME280;57318;56.232;43.944;2024-01-15T04:57:31;97749.44;;;-12.98;77.19
69980;BME280;57318;56.232;43.944;2024-01-15T04:59:57;97758.75;;;-12.91;77.49
69980;BME280;57318;56.232;43.944;2024-01-15T05:02:23;97769.78;;;-12.89;77.53
69980;BME280;57318;56.232;43.944;2024-01-15T05:04:48;97762.06;;;-12.86;77.71
69980;BME280;57318;56.232;43.944;2024-01-15T05:07:14;97755.28;;;-12.87;77.43
69980;BME280;57318;56.232;43.944;2024-01-15T05:09:40;97765.53;;;-12.87;77.74
69980;BME280;57318;56.232;43.944;2024-01-15T05:12:05;97756.94;;;-12.84;77.64
69980;BME280;57318;56.232;43.944;2024-01-15T05:14:31;97754.34;;;-12.83;77.73
69980;BME280;57318;56.232;43.944;2024-01-15T05:16:57;97749.19;;;-12.80;77.85
69980;BME280;57318;56.232;43.944;2024-01-15T05:19:23;97750.06;;;-12.78;77.97
69980;BME280;57318;56.232;43.944;2024-01-15T05:21:48;97749.16;;;-12.75;77.93
69980;BME280;57318;56.232;43.944;2024-01-15T05:24:14;97753.44;;;-12.77;78.09
69980;BME280;57318;56.232;43.944;2024-01-15T05:26:40;97761.94;;;-12.77;78.30
69980;BME280;57318;56.232;43.944;2024-01-15T05:29:05;97754.25;;;-12.74;78.47
69980;BME280;57318;56.232;43.944;2024-01-15T05:31:31;97761.03;;;-12.71;78.27
69980;BME280;57318;56.232;43.944;2024-01-15T05:33:57;97761.88;;;-12.71;78.39
69980;BME280;57318;56.232;43.944;2024-01-15T05:36:22;97754.19;;;-12.71;78.32
69980;BME280;57318;56.232;43.944;2024-01-15T05:38:48;97766.94;;;-12.67;78.40
69980;BME280;57318;56.232;43.944;2024-01-15T05:41:15;97764.38;;;-12.67;77.93
69980;BME280;57318;56.232;43.944;2024-01-15T05:43:40;97756.69;;;-12.66;78.31
69980;BME280;57318;56.232;43.944;2024-01-15T05:46:06;97766.88;;;-12.63;77.99
69980;BME280;57318;56.232;43.944;2024-01-15T05:48:32;97757.53;;;-12.65;77.81
69980;BME280;57318;56.232;43.944;2024-01-15T05:50:57;97758.31;;;-12.60;78.13
69980;BME280;57318;56.232;43.944;2024-01-15T05:53:23;97763.41;;;-12.57;78.29
69980;BME280;57318;56.232;43.944;2024-01-15T05:55:48;97765.91;;;-12.54;78.56
69980;BME280;57318;56.232;43.944;2024-01-15T05:58:14;97757.38;;;-12.55;78.31
69980;BME280;57318;56.232;43.944;2024-01-15T06:00:40;97764.16;;;-12.52;78.38
69980;BME280;57318;56.232;43.944;2024-01-15T06:03:05;97756.44;;;-12.47;78.41
69980;BME280;57318;56.232;43.944;2024-01-15T06:05:31;97748.66;;;-12.41;78.61
69980;BME280;57318;56.232;43.944;2024-01-15T06:07:57;97743.50;;;-12.40;78.16
69980;BME280;57318;56.232;43.944;2024-01-15T06:10:23;97762.19;;;-12.35;77.98
69980;BME280;57318;56.232;43.944;2024-01-15T06:12:49;97762.88;;;-12.25;77.90
69980;BME280;57318;56.232;43.944;2024-01-15T06:15:14;97756.88;;;-12.21;77.53
69980;BME280;57318;56.232;43.944;2024-01-15T06:17:40;97760.16;;;-12.14;77.45
69980;BME280;57318;56.232;43.944;2024-01-15T06:20:06;97750.69;;;-12.09;77.57
69980;BME280;57318;56.232;43.944;2024-01-15T06:22:32;97762.59;;;-12.06;77.31
69980;BME280;57318;56.232;43.944;2024-01-15T06:24:58;97765.09;;;-12.02;77.18
69980;BME280;57318;56.232;43.944;2024-01-15T06:27:23;97768.41;;;-11.96;77.02
69980;BME280;57318;56.232;43.944;2024-01-15T06:29:49;97760.78;;;-12.00;76.82
69980;BME280;57318;56.232;43.944;2024-01-15T06:32:15;97749.63;;;-11.95;76.98
69980;BME280;57318;56.232;43.944;2024-01-15T06:34:40;97749.47;;;-11.89;77.22
69980;BME280;57318;56.232;43.944;2024-01-15T06:37:06;97751.09;;;-11.85;76.97
69980;BME280;57318;56.232;43.944;2024-01-15T06:39:59;97746.78;;;-11.82;76.82
69980;BME280;57318;56.232;43.944;2024-01-15T06:42:25;97749.22;;;-11.74;76.66
69980;BME280;57318;56.232;43.944;2024-01-15T06:44:51;97741.50;;;-11.72;76.74
69980;BME280;57318;56.232;43.944;2024-01-15T06:47:16;97750.72;;;-11.64;76.71
69980;BME280;57318;56.232;43.944;2024-01-15T06:49:43;97735.25;;;-11.57;76.63
69980;BME280;57318;56.232;43.944;2024-01-15T06:52:08;97740.31;;;-11.54;76.45
69980;BME280;57318;56.232;43.944;2024-01-15T06:54:34;97738.56;;;-11.52;76.46
69980;BME280;57318;56.232;43.944;2024-01-15T06:57:00;97740.94;;;-11.43;76.31
69980;BME280;57318;56.232;43.944;2024-01-15T06:59:25;97749.47;;;-11.41;75.72
69980;BME280;57318;56.232;43.944;2024-01-15T07:01:51;97758.78;;;-11.37;75.72
69980;BME280;57318;56.232;43.944;2024-01-15T07:04:17;97761.31;;;-11.35;75.43
69980;BME280;57318;56.232;43.944;2024-01-15T07:06:43;97763.78;;;-11.31;75.29
69980;BME280;57318;56.232;43.944;2024-01-15T07:09:09;97750.84;;;-11.25;74.77
69980;BME280;57318;56.232;43.944;2024-01-15T07:11:36;97755.84;;;-11.18;74.60
69980;BME280;57318;56.232;43.944;2024-01-15T07:14:02;97754.88;;;-11.11;74.39
69980;BME280;57318;56.232;43.944;2024-01-15T07:16:28;97760.00;;;-11.11;74.23
69980;BME280;57318;56.232;43.944;2024-01-15T07:18:55;97763.25;;;-11.03;73.78
69980;BME280;57318;56.232;43.944;2024-01-15T07:21:20;97749.41;;;-10.96;73.40
69980;BME280;57318;56.232;43.944;2024-01-15T07:23:46;97770.66;;;-10.89;73.39
69980;BME280;57318;56.232;43.944;2024-01-15T07:26:13;97784.06;;;-10.76;73.09
69980;BME280;57318;56.232;43.944;2024-01-15T07:28:38;97762.66;;;-10.77;72.17
69980;BME280;57318;56.232;43.944;2024-01-15T07:31:05;97776.09;;;-10.64;72.01
69980;BME280;57318;56.232;43.944;2024-01-15T07:33:31;97769.84;;;-10.52;71.85
69980;BME280;57318;56.232;43.944;2024-01-15T07:35:57;97766.38;;;-10.49;70.70
69980;BME280;57318;56.232;43.944;2024-01-15T07:38:23;97760.91;;;-10.34;71.10
69980;BME280;57318;56.232;43.944;2024-01-15T07:40:49;97765.94;;;-10.31;70.53
69980;BME280;57318;56.232;43.944;2024-01-15T07:43:15;97753.84;;;-10.27;70.23
69980;BME280;57318;56.232;43.944;2024-01-15T07:45:41;97770.66;;;-10.14;70.14
69980;BME280;57318;56.232;43.944;2024-01-15T07:48:06;97763.88;;;-10.17;69.73
69980;BME280;57318;56.232;43.944;2024-01-15T07:50:34;97762.94;;;-10.14;69.67
69980;BME280;57318;56.232;43.944;2024-01-15T07:53:00;97754.47;;;-10.18;69.39
69980;BME280;57318;56.232;43.944;2024-01-15T07:55:26;97756.16;;;-10.17;69.42
69980;BME280;57318;56.232;43.944;2024-01-15T07:57:52;97752.25;;;-9.97;69.51
69980;BME280;57318;56.232;43.944;2024-01-15T08:00:19;97728.97;;;-9.91;68.92
69980;BME280;57318;56.232;43.944;2024-01-15T08:02:44;97758.13;;;-9.92;68.40
69980;BME280;57318;56.232;43.944;2024-01-15T08:05:10;97757.28;;;-9.92;68.02
69980;BME280;57318;56.232;43.944;2024-01-15T08:07:36;97754.44;;;-9.82;68.43
69980;BME280;57318;56.232;43.944;2024-01-15T08:10:01;97757.97;;;-9.86;67.97
69980;BME280;57318;56.232;43.944;2024-01-15T08:12:29;97750.19;;;-9.83;67.98
69980;BME280;57318;56.232;43.944;2024-01-15T08:14:54;97745.94;;;-9.84;68.40
69980;BME280;57318;56.232;43.944;2024-01-15T08:17:20;97749.19;;;-9.77;68.16
69980;BME280;57318;56.232;43.944;2024-01-15T08:19:45;97750.88;;;-9.76;68.20
69980;BME280;57318;56.232;43.944;2024-01-15T08:22:12;97740.72;;;-9.81;68.27
69980;BME280;57318;56.232;43.944;2024-01-15T08:24:37;97739.91;;;-9.83;68.51
69980;BME280;57318;56.232;43.944;2024-01-15T08:27:03;97745.91;;;-9.82;68.48
69980;BME280;57318;56.232;43.944;2024-01-15T08:29:33;97739.94;;;-9.84;68.63
69980;BME280;57318;56.232;43.944;2024-01-15T08:32:00;97729.09;;;-9.95;68.64
69980;BME280;57318;56.232;43.944;2024-01-15T08:34:25;97727.50;;;-10.00;69.09
69980;BME280;57318;56.232;43.944;2024-01-15T08:36:51;97728.09;;;-9.90;69.27
69980;BME280;57318;56.232;43.944;2024-01-15T08:39:17;97734.19;;;-9.94;69.34
69980;BME280;57318;56.232;43.944;2024-01-15T08:41:44;97730.03;;;-9.98;69.55
69980;BME280;57318;56.232;43.944;2024-01-15T08:44:12;97744.72;;;-10.05;69.87
69980;BME280;57318;56.232;43.944;2024-01-15T08:46:38;97740.22;;;-9.95;69.99
69980;BME280;57318;56.232;43.944;2024-01-15T08:49:04;97721.34;;;-9.94;69.68
69980;BME280;57318;56.232;43.944;2024-01-15T08:51:32;97731.56;;;-9.91;69.67
69980;BME280;57318;56.232;43.944;2024-01-15T08:53:58;97727.88;;;-9.81;70.04
69980;BME280;57318;56.232;43.944;2024-01-15T08:56:24;97748.28;;;-9.74;69.90
69980;BME280;57318;56.232;43.944;2024-01-15T08:58:49;97722.31;;;-9.65;69.43
69980;BME280;57318;56.232;43.944;2024-01-15T09:01:15;97726.00;;;-9.43;69.07
69980;BME280;57318;56.232;43.944;2024-01-15T09:03:41;97741.19;;;-9.33;68.37
69980;BME280;57318;56.232;43.944;2024-01-15T09:06:08;97724.22;;;-9.40;68.38
69980;BME280;57318;56.232;43.944;2024-01-15T09:08:35;97736.78;;;-9.30;68.41
69980;BME280;57318;56.232;43.944;2024-01-15T09:11:01;97719.72;;;-9.32;68.20
69980;BME280;57318;56.232;43.944;2024-01-15T09:13:28;97741.97;;;-9.31;68.45
69980;BME280;57318;56.232;43.944;2024-01-15T09:15:54;97739.31;;;-9.28;68.58
69980;BME280;57318;56.232;43.944;2024-01-15T09:18:19;97725.53;;;-9.26;68.45
69980;BME280;57318;56.232;43.944;2024-01-15T09:20:45;97728.25;;;-9.30;68.37
69980;BME280;57318;56.232;43.944;2024-01-15T09:23:11;97727.75;;;-9.43;68.33
69980;BME280;57318;56.232;43.944;2024-01-15T09:25:37;97720.16;;;-9.48;68.68
69980;BME280;57318;56.232;43.944;2024-01-15T09:28:03;97734.88;;;-9.54;69.16
69980;BME280;57318;56.232;43.944;2024-01-15T09:30:29;97753.91;;;-9.60;69.51
69980;BME280;57318;56.232;43.944;2024-01-15T09:32:55;97727.41;;;-9.64;69.80
69980;BME280;57318;56.232;43.944;2024-01-15T09:35:22;97736.66;;;-9.56;69.74
69980;BME280;57318;56.232;43.944;2024-01-15T09:37:48;97724.50;;;-9.51;69.75
69980;BME280;57318;56.232;43.944;2024-01-15T09:40:14;97739.19;;;-9.55;69.95
69980;BME280;57318;56.232;43.944;2024-01-15T09:42:41;97734.28;;;-9.64;70.54
69980;BME280;57318;56.232;43.944;2024-01-15T09:45:08;97750.66;;;-9.68;70.96
69980;BME280;57318;56.232;43.944;2024-01-15T09:47:36;97748.13;;;-9.70;71.25
69980;BME280;57318;56.232;43.944;2024-01-15T09:50:02;97762.00;;;-9.75;71.44
69980;BME280;57318;56.232;43.944;2024-01-15T09:52:30;97747.25;;;-9.69;71.78
69980;BME280;57318;56.232;43.944;2024-01-15T09:54:58;97766.91;;;-9.66;72.05
69980;BME280;57318;56.232;43.944;2024-01-15T09:57:24;97760.00;;;-9.64;72.08
69980;BME280;57318;56.232;43.944;2024-01-15T09:59:51;97760.06;;;-9.67;71.99
69980;BME280;57318;56.232;43.944;2024-01-15T10:02:18;97755.75;;;-9.67;72.22
69980;BME280;57318;56.232;43.944;2024-01-15T10:04:45;97754.13;;;-9.69;72.25
69980;BME280;57318;56.232;43.944;2024-01-15T10:07:15;97754.13;;;-9.69;72.52
69980;BME280;57318;56.232;43.944;2024-01-15T10:09:43;97737.91;;;-9.71;72.47
69980;BME280;57318;56.232;43.944;2024-01-15T10:12:10;97772.22;;;-9.72;72.51
69980;BME280;57318;56.232;43.944;2024-01-15T10:14:35;97739.78;;;-9.78;72.82
69980;BME280;57318;56.232;43.944;2024-01-15T10:17:12;97751.72;;;-9.75;72.92
69980;BME280;57318;56.232;43.944;2024-01-15T10:19:37;97734.53;;;-9.73;73.09
69980;BME280;57318;56.232;43.944;2024-01-15T10:22:03;97741.41;;;-9.74;73.08
69980;BME280;57318;56.232;43.944;2024-01-15T10:24:29;97736.22;;;-9.72;73.17
69980;BME280;57318;56.232;43.944;2024-01-15T10:27:05;97734.53;;;-9.73;73.21
69980;BME280;57318;56.232;43.944;2024-01-15T10:29:31;97737.91;;;-9.71;73.29
69980;BME280;57318;56.232;43.944;2024-01-15T10:31:56;97727.56;;;-9.70;73.19
69980;BME280;57318;56.232;43.944;2024-01-15T10:34:22;97723.75;;;-9.55;73.23
69980;BME280;57318;56.232;43.944;2024-01-15T10:36:48;97737.25;;;-9.47;73.00
69980;BME280;57318;56.232;43.944;2024-01-15T10:39:24;97756.06;;;-9.45;72.79
69980;BME280;57318;56.232;43.944;2024-01-15T10:41:50;97773.00;;;-9.37;72.79
69980;BME280;57318;56.232;43.944;2024-01-15T10:44:17;97763.44;;;-9.32;72.57
69980;BME280;57318;56.232;43.944;2024-01-15T10:46:44;97772.84;;;-9.31;72.33
69980;BME280;57318;56.232;43.944;2024-01-15T10:49:13;97756.63;;;-9.33;72.63
69980;BME280;57318;56.232;43.944;2024-01-15T10:51:39;97757.53;;;-9.36;72.35
69980;BME280;57318;56.232;43.944;2024-01-15T10:54:06;97771.19;;;-9.34;72.63
69980;BME280;57318;56.232;43.944;2024-01-15T10:56:37;97755.81;;;-9.35;72.59
69980;BME280;57318;56.232;43.944;2024-01-15T10:59:04;97756.06;;;-9.45;72.76
69980;BME280;57318;56.232;43.944;2024-01-15T11:01:31;97749.97;;;-9.42;72.80
69980;BME280;57318;56.232;43.944;2024-01-15T11:03:57;97752.50;;;-9.40;72.99
69980;BME280;57318;56.232;43.944;2024-01-15T11:06:24;97740.66;;;-9.45;73.04
69980;BME280;57318;56.232;43.944;2024-01-15T11:08:51;97737.03;;;-9.39;73.21
69980;BME280;57318;56.232;43.944;2024-01-15T11:11:17;97730.25;;;-9.41;72.95
69980;BME280;57318;56.232;43.944;2024-01-15T11:13:43;97723.19;;;-9.33;73.05
69980;BME280;57318;56.232;43.944;2024-01-15T11:16:11;97735.13;;;-9.32;72.78
69980;BME280;57318;56.232;43.944;2024-01-15T11:18:41;97745.47;;;-9.34;72.67
69980;BME280;57318;56.232;43.944;2024-01-15T11:23:43;97747.28;;;-9.37;72.87
69980;BME280;57318;56.232;43.944;2024-01-15T11:26:38;97732.81;;;-9.41;73.16
69980;BME280;57318;56.232;43.944;2024-01-15T11:29:28;97731.16;;;-9.43;73.48
69980;BME280;57318;56.232;43.944;2024-01-15T11:34:20;97726.22;;;-9.50;73.90
69980;BME280;57318;56.232;43.944;2024-01-15T11:42:00;97720.88;;;-9.43;74.09
69980;BME280;57318;56.232;43.944;2024-01-15T11:44:27;97729.56;;;-9.48;74.26
69980;BME280;57318;56.232;43.944;2024-01-15T11:52:11;97731.16;;;-9.43;75.05
69980;BME280;57318;56.232;43.944;2024-01-15T11:54:42;97715.13;;;-9.52;74.83
69980;BME280;57318;56.232;43.944;2024-01-15T11:57:36;97713.59;;;-9.59;75.11
69980;BME280;57318;56.232;43.944;2024-01-15T12:00:04;97721.34;;;-9.61;75.64
69980;BME280;57318;56.232;43.944;2024-01-15T12:02:30;97723.09;;;-9.62;75.66
69980;BME280;57318;56.232;43.944;2024-01-15T12:04:56;97721.44;;;-9.64;75.91
69980;BME280;57318;56.232;43.944;2024-01-15T12:07:22;97728.13;;;-9.57;76.08
69980;BME280;57318;56.232;43.944;2024-01-15T12:09:47;97727.28;;;-9.59;76.13
69980;BME280;57318;56.232;43.944;2024-01-15T12:12:20;97731.63;;;-9.61;76.14
69980;BME280;57318;56.232;43.944;2024-01-15T12:14:50;97723.97;;;-9.63;76.14
69980;BME280;57318;56.232;43.944;2024-01-15T12:17:16;97725.69;;;-9.63;76.31
69980;BME280;57318;56.232;43.944;2024-01-15T12:19:43;97706.88;;;-9.65;76.67
69980;BME280;57318;56.232;43.944;2024-01-15T12:22:08;97732.50;;;-9.62;76.80
69980;BME280;57318;56.232;43.944;2024-01-15T12:24:35;97721.44;;;-9.64;76.80
69980;BME280;57318;56.232;43.944;2024-01-15T12:27:01;97724.00;;;-9.64;77.05
69980;BME280;57318;56.232;43.944;2024-01-15T12:29:27;97724.09;;;-9.67;77.23
69980;BME280;57318;56.232;43.944;2024-01-15T12:31:53;97725.88;;;-9.69;77.26
69980;BME280;57318;56.232;43.944;2024-01-15T12:34:19;97726.78;;;-9.72;77.16
69980;BME280;57318;56.232;43.944;2024-01-15T12:36:48;97733.63;;;-9.71;77.65
69980;BME280;57318;56.232;43.944;2024-01-15T12:39:13;97720.88;;;-9.75;77.35
69980;BME280;57318;56.232;43.944;2024-01-15T12:41:41;97724.25;;;-9.73;77.71
69980;BME280;57318;56.232;43.944;2024-01-15T12:44:06;97729.47;;;-9.76;77.87
69980;BME280;57318;56.232;43.944;2024-01-15T12:46:32;97729.47;;;-9.76;77.97
69980;BME280;57318;56.232;43.944;2024-01-15T12:48:58;97734.75;;;-9.83;77.77
69980;BME280;57318;56.232;43.944;2024-01-15T12:51:26;97741.59;;;-9.82;78.14
69980;BME280;57318;56.232;43.944;2024-01-15T12:53:53;97724.34;;;-9.78;78.11